sensor_id;sensor_type;location;lat;lon;timestamp;P1;durP1;ratioP1;P2;durP2;ratioP2
10523;SDS011;5310;48.638;9.060;2023-09-07T00:02:15;4.17;;;2.07;;
10523;SDS011;5310;48.638;9.060;2023-09-07T00:04:41;4.53;;;2.20;;
10523;SDS011;5310;48.638;9.060;2023-09-07T00:07:08;3.93;;;1.97;;
10523;SDS011;5310;48.638;9.060;2023-09-07T00:09:34;4.73;;;2.27;;
10523;SDS011;5310;48.638;9.060;2023-09-07T00:12:00;4.10;;;2.10;;
10523;SDS011;5310;48.638;9.060;2023-09-07T00:14:26;3.33;;;1.80;;
10523;SDS011;5310;48.638;9.060;2023-09-07T00:16:52;3.70;;;1.90;;
10523;SDS011;5310;48.638;9.060;2023-09-07T00:19:18;4.07;;;2.00;;
10523;SDS011;5310;48.638;9.060;2023-09-07T00:21:44;4.07;;;2.00;;
10523;SDS011;5310;48.638;9.060;2023-09-07T00:24:10;3.67;;;1.87;;
10523;SDS011;5310;48.638;9.060;2023-09-07T00:26:36;4.50;;;2.10;;
10523;SDS011;5310;48.638;9.060;2023-09-07T00:29:02;4.17;;;2.00;;
10523;SDS011;5310;48.638;9.060;2023-09-07T00:31:27;3.83;;;1.90;;
10523;SDS011;5310;48.638;9.060;2023-09-07T00:33:53;3.67;;;1.80;;
10523;SDS011;5310;48.638;9.060;2023-09-07T00:36:19;4.63;;;2.13;;
10523;SDS011;5310;48.638;9.060;2023-09-07T00:38:45;4.17;;;2.00;;
10523;SDS011;5310;48.638;9.060;2023-09-07T00:41:12;4.10;;;2.00;;
10523;SDS011;5310;48.638;9.060;2023-09-07T00:43:38;3.33;;;1.73;;
10523;SDS011;5310;48.638;9.060;2023-09-07T00:46:06;3.83;;;1.83;;
10523;SDS011;5310;48.638;9.060;2023-09-07T00:48:31;3.63;;;1.80;;
10523;SDS011;5310;48.638;9.060;2023-09-07T00:50:58;3.53;;;1.80;;
10523;SDS011;5310;48.638;9.060;2023-09-07T00:53:25;4.87;;;2.20;;
10523;SDS011;5310;48.638;9.060;2023-09-07T00:55:51;4.63;;;2.07;;
10523;SDS011;5310;48.638;9.060;2023-09-07T00:58:17;5.83;;;2.10;;
10523;SDS011;5310;48.638;9.060;2023-09-07T01:00:43;5.23;;;2.23;;
10523;SDS011;5310;48.638;9.060;2023-09-07T01:03:09;3.97;;;1.93;;
10523;SDS011;5310;48.638;9.060;2023-09-07T01:05:41;4.27;;;2.00;;
10523;SDS011;5310;48.638;9.060;2023-09-07T01:08:13;3.80;;;1.93;;
10523;SDS011;5310;48.638;9.060;2023-09-07T01:10:45;4.77;;;2.30;;
10523;SDS011;5310;48.638;9.060;2023-09-07T01:13:11;5.77;;;2.67;;
10523;SDS011;5310;48.638;9.060;2023-09-07T01:15:37;4.77;;;2.30;;
10523;SDS011;5310;48.638;9.060;2023-09-07T01:18:03;5.23;;;2.40;;
10523;SDS011;5310;48.638;9.060;2023-09-07T01:20:30;5.53;;;2.47;;
10523;SDS011;5310;48.638;9.060;2023-09-07T01:22:57;5.50;;;2.40;;
10523;SDS011;5310;48.638;9.060;2023-09-07T01:25:23;6.00;;;2.67;;
10523;SDS011;5310;48.638;9.060;2023-09-07T01:27:50;4.43;;;2.13;;
10523;SDS011;5310;48.638;9.060;2023-09-07T01:30:16;5.10;;;2.30;;
10523;SDS011;5310;48.638;9.060;2023-09-07T01:32:43;7.97;;;3.13;;
10523;SDS011;5310;48.638;9.060;2023-09-07T01:35:09;5.63;;;2.47;;
10523;SDS011;5310;48.638;9.060;2023-09-07T01:37:37;5.77;;;2.33;;
10523;SDS011;5310;48.638;9.060;2023-09-07T01:40:03;3.60;;;1.80;;
10523;SDS011;5310;48.638;9.060;2023-09-07T01:42:32;4.33;;;2.10;;
10523;SDS011;5310;48.638;9.060;2023-09-07T01:44:58;3.50;;;1.83;;
10523;SDS011;5310;48.638;9.060;2023-09-07T01:47:24;4.57;;;2.07;;
10523;SDS011;5310;48.638;9.060;2023-09-07T01:49:50;4.23;;;2.10;;
10523;SDS011;5310;48.638;9.060;2023-09-07T01:52:16;4.03;;;2.00;;
10523;SDS011;5310;48.638;9.060;2023-09-07T01:54:42;4.23;;;2.07;;
10523;SDS011;5310;48.638;9.060;2023-09-07T01:57:08;4.67;;;2.20;;
10523;SDS011;5310;48.638;9.060;2023-09-07T01:59:34;4.60;;;2.20;;
10523;SDS011;5310;48.638;9.060;2023-09-07T02:02:00;4.13;;;2.00;;
10523;SDS011;5310;48.638;9.060;2023-09-07T02:04:26;4.43;;;2.10;;
10523;SDS011;5310;48.638;9.060;2023-09-07T02:06:52;4.17;;;2.07;;
10523;SDS011;5310;48.638;9.060;2023-09-07T02:09:17;4.07;;;2.00;;
10523;SDS011;5310;48.638;9.060;2023-09-07T02:11:43;4.17;;;2.07;;
10523;SDS011;5310;48.638;9.060;2023-09-07T02:14:09;3.73;;;1.90;;
10523;SDS011;5310;48.638;9.060;2023-09-07T02:16:35;4.17;;;2.00;;
10523;SDS011;5310;48.638;9.060;2023-09-07T02:19:02;3.40;;;1.80;;
10523;SDS011;5310;48.638;9.060;2023-09-07T02:21:28;3.93;;;1.90;;
10523;SDS011;5310;48.638;9.060;2023-09-07T02:23:54;3.23;;;1.80;;
10523;SDS011;5310;48.638;9.060;2023-09-07T02:26:20;3.60;;;1.90;;
10523;SDS011;5310;48.638;9.060;2023-09-07T02:28:46;4.27;;;2.10;;
10523;SDS011;5310;48.638;9.060;2023-09-07T02:31:12;3.80;;;2.00;;
10523;SDS011;5310;48.638;9.060;2023-09-07T02:33:38;3.13;;;1.77;;
10523;SDS011;5310;48.638;9.060;2023-09-07T02:36:05;3.43;;;1.87;;
10523;SDS011;5310;48.638;9.060;2023-09-07T02:38:30;4.90;;;2.00;;
10523;SDS011;5310;48.638;9.060;2023-09-07T02:40:57;4.03;;;2.00;;
10523;SDS011;5310;48.638;9.060;2023-09-07T02:43:23;3.53;;;1.90;;
10523;SDS011;5310;48.638;9.060;2023-09-07T02:45:49;2.87;;;1.70;;
10523;SDS011;5310;48.638;9.060;2023-09-07T02:48:16;3.17;;;1.77;;
10523;SDS011;5310;48.638;9.060;2023-09-07T02:50:42;3.63;;;1.97;;
10523;SDS011;5310;48.638;9.060;2023-09-07T02:53:10;2.80;;;1.60;;
10523;SDS011;5310;48.638;9.060;2023-09-07T02:55:38;3.17;;;1.70;;
10523;SDS011;5310;48.638;9.060;2023-09-07T02:58:04;2.97;;;1.70;;
10523;SDS011;5310;48.638;9.060;2023-09-07T03:00:30;3.67;;;2.00;;
10523;SDS011;5310;48.638;9.060;2023-09-07T03:02:56;3.23;;;1.77;;
10523;SDS011;5310;48.638;9.060;2023-09-07T03:05:23;3.03;;;1.70;;
10523;SDS011;5310;48.638;9.060;2023-09-07T03:07:49;3.00;;;1.70;;
10523;SDS011;5310;48.638;9.060;2023-09-07T03:10:15;3.63;;;1.90;;
10523;SDS011;5310;48.638;9.060;2023-09-07T03:12:40;4.20;;;2.13;;
10523;SDS011;5310;48.638;9.060;2023-09-07T03:15:07;4.27;;;2.13;;
10523;SDS011;5310;48.638;9.060;2023-09-07T03:17:32;4.43;;;2.00;;
10523;SDS011;5310;48.638;9.060;2023-09-07T03:19:58;4.37;;;2.10;;
10523;SDS011;5310;48.638;9.060;2023-09-07T03:22:24;3.90;;;1.90;;
10523;SDS011;5310;48.638;9.060;2023-09-07T03:24:51;2.90;;;1.63;;
10523;SDS011;5310;48.638;9.060;2023-09-07T03:27:17;3.03;;;1.70;;
10523;SDS011;5310;48.638;9.060;2023-09-07T03:29:46;3.40;;;1.80;;
10523;SDS011;5310;48.638;9.060;2023-09-07T03:32:12;3.67;;;1.90;;
10523;SDS011;5310;48.638;9.060;2023-09-07T03:34:38;3.60;;;1.83;;
10523;SDS011;5310;48.638;9.060;2023-09-07T03:37:04;5.37;;;2.10;;
10523;SDS011;5310;48.638;9.060;2023-09-07T03:39:31;4.07;;;2.00;;
10523;SDS011;5310;48.638;9.060;2023-09-07T03:41:57;4.30;;;2.10;;
10523;SDS011;5310;48.638;9.060;2023-09-07T03:44:23;3.37;;;1.80;;
10523;SDS011;5310;48.638;9.060;2023-09-07T03:46:48;3.03;;;1.70;;
10523;SDS011;5310;48.638;9.060;2023-09-07T03:49:14;3.67;;;1.90;;
10523;SDS011;5310;48.638;9.060;2023-09-07T03:51:40;4.67;;;2.20;;
10523;SDS011;5310;48.638;9.060;2023-09-07T03:54:06;3.37;;;1.80;;
10523;SDS011;5310;48.638;9.060;2023-09-07T03:56:32;2.67;;;1.70;;
10523;SDS011;5310;48.638;9.060;2023-09-07T03:58:58;4.03;;;2.03;;
10523;SDS011;5310;48.638;9.060;2023-09-07T04:01:24;3.57;;;1.87;;
10523;SDS011;5310;48.638;9.060;2023-09-07T04:03:50;3.87;;;1.90;;
10523;SDS011;5310;48.638;9.060;2023-09-07T04:06:16;2.83;;;1.67;;
10523;SDS011;5310;48.638;9.060;2023-09-07T04:08:42;4.37;;;2.10;;
10523;SDS011;5310;48.638;9.060;2023-09-07T04:11:08;3.90;;;1.93;;
10523;SDS011;5310;48.638;9.060;2023-09-07T04:13:35;4.13;;;1.97;;
10523;SDS011;5310;48.638;9.060;2023-09-07T04:16:01;4.03;;;2.00;;
10523;SDS011;5310;48.638;9.060;2023-09-07T04:18:27;3.67;;;1.90;;
10523;SDS011;5310;48.638;9.060;2023-09-07T04:20:53;3.97;;;2.00;;
10523;SDS011;5310;48.638;9.060;2023-09-07T04:23:29;4.77;;;2.20;;
10523;SDS011;5310;48.638;9.060;2023-09-07T04:26:03;3.73;;;1.93;;
10523;SDS011;5310;48.638;9.060;2023-09-07T04:28:29;3.97;;;2.00;;
10523;SDS011;5310;48.638;9.060;2023-09-07T04:30:55;4.13;;;2.00;;
10523;SDS011;5310;48.638;9.060;2023-09-07T04:33:21;4.53;;;2.20;;
10523;SDS011;5310;48.638;9.060;2023-09-07T04:35:47;3.90;;;2.00;;
10523;SDS011;5310;48.638;9.060;2023-09-07T04:38:13;4.43;;;2.07;;
10523;SDS011;5310;48.638;9.060;2023-09-07T04:40:39;3.97;;;2.00;;
10523;SDS011;5310;48.638;9.060;2023-09-07T04:43:04;4.30;;;2.00;;
10523;SDS011;5310;48.638;9.060;2023-09-07T04:45:30;3.90;;;2.00;;
10523;SDS011;5310;48.638;9.060;2023-09-07T04:47:56;2.93;;;1.70;;
10523;SDS011;5310;48.638;9.060;2023-09-07T04:50:22;5.00;;;2.30;;
10523;SDS011;5310;48.638;9.060;2023-09-07T04:52:48;5.80;;;2.57;;
10523;SDS011;5310;48.638;9.060;2023-09-07T04:55:14;6.90;;;2.80;;
10523;SDS011;5310;48.638;9.060;2023-09-07T04:57:40;6.37;;;2.63;;
10523;SDS011;5310;48.638;9.060;2023-09-07T05:00:06;6.40;;;2.60;;
10523;SDS011;5310;48.638;9.060;2023-09-07T05:02:34;3.97;;;1.97;;
10523;SDS011;5310;48.638;9.060;2023-09-07T05:05:06;6.37;;;2.60;;
10523;SDS011;5310;48.638;9.060;2023-09-07T05:07:33;7.10;;;2.70;;
10523;SDS011;5310;48.638;9.060;2023-09-07T05:09:59;6.30;;;2.67;;
10523;SDS011;5310;48.638;9.060;2023-09-07T05:12:25;6.73;;;2.70;;
10523;SDS011;5310;48.638;9.060;2023-09-07T05:14:51;5.90;;;2.50;;
10523;SDS011;5310;48.638;9.060;2023-09-07T05:17:17;5.83;;;2.43;;
10523;SDS011;5310;48.638;9.060;2023-09-07T05:19:43;6.20;;;2.53;;
10523;SDS011;5310;48.638;9.060;2023-09-07T05:22:09;3.43;;;1.80;;
10523;SDS011;5310;48.638;9.060;2023-09-07T05:24:37;4.67;;;2.20;;
10523;SDS011;5310;48.638;9.060;2023-09-07T05:27:03;4.23;;;2.03;;
10523;SDS011;5310;48.638;9.060;2023-09-07T05:29:30;3.57;;;1.90;;
10523;SDS011;5310;48.638;9.060;2023-09-07T05:31:56;5.53;;;2.37;;
10523;SDS011;5310;48.638;9.060;2023-09-07T05:34:22;5.63;;;2.37;;
10523;SDS011;5310;48.638;9.060;2023-09-07T05:36:48;6.67;;;2.50;;
10523;SDS011;5310;48.638;9.060;2023-09-07T05:39:14;6.00;;;2.40;;
10523;SDS011;5310;48.638;9.060;2023-09-07T05:41:40;6.80;;;2.77;;
10523;SDS011;5310;48.638;9.060;2023-09-07T05:44:06;7.30;;;2.87;;
10523;SDS011;5310;48.638;9.060;2023-09-07T05:46:32;6.67;;;2.70;;
10523;SDS011;5310;48.638;9.060;2023-09-07T05:48:58;5.77;;;2.50;;
10523;SDS011;5310;48.638;9.060;2023-09-07T05:51:24;6.23;;;2.53;;
10523;SDS011;5310;48.638;9.060;2023-09-07T05:53:49;5.20;;;2.27;;
10523;SDS011;5310;48.638;9.060;2023-09-07T05:56:15;6.43;;;2.53;;
10523;SDS011;5310;48.638;9.060;2023-09-07T05:58:41;6.70;;;2.63;;
10523;SDS011;5310;48.638;9.060;2023-09-07T06:01:07;6.80;;;2.67;;
10523;SDS011;5310;48.638;9.060;2023-09-07T06:03:33;5.77;;;2.43;;
10523;SDS011;5310;48.638;9.060;2023-09-07T06:06:00;7.50;;;2.80;;
10523;SDS011;5310;48.638;9.060;2023-09-07T06:08:26;5.80;;;2.40;;
10523;SDS011;5310;48.638;9.060;2023-09-07T06:10:53;5.87;;;2.37;;
10523;SDS011;5310;48.638;9.060;2023-09-07T06:13:19;7.17;;;2.73;;
10523;SDS011;5310;48.638;9.060;2023-09-07T06:15:44;6.40;;;2.57;;
10523;SDS011;5310;48.638;9.060;2023-09-07T06:18:11;6.63;;;2.57;;
10523;SDS011;5310;48.638;9.060;2023-09-07T06:20:37;7.07;;;2.73;;
10523;SDS011;5310;48.638;9.060;2023-09-07T06:23:03;7.27;;;2.83;;
10523;SDS011;5310;48.638;9.060;2023-09-07T06:25:29;6.43;;;2.53;;
10523;SDS011;5310;48.638;9.060;2023-09-07T06:27:55;5.90;;;2.43;;
10523;SDS011;5310;48.638;9.060;2023-09-07T06:30:21;6.43;;;2.53;;
10523;SDS011;5310;48.638;9.060;2023-09-07T06:32:47;6.83;;;2.60;;
10523;SDS011;5310;48.638;9.060;2023-09-07T06:35:13;7.10;;;2.70;;
10523;SDS011;5310;48.638;9.060;2023-09-07T06:37:39;6.40;;;2.50;;
10523;SDS011;5310;48.638;9.060;2023-09-07T06:40:07;7.10;;;2.63;;
10523;SDS011;5310;48.638;9.060;2023-09-07T06:42:34;6.47;;;2.40;;
10523;SDS011;5310;48.638;9.060;2023-09-07T06:45:00;6.67;;;2.50;;
10523;SDS011;5310;48.638;9.060;2023-09-07T06:47:26;7.13;;;2.67;;
10523;SDS011;5310;48.638;9.060;2023-09-07T06:49:52;7.23;;;2.63;;
10523;SDS011;5310;48.638;9.060;2023-09-07T06:52:19;6.67;;;2.53;;
10523;SDS011;5310;48.638;9.060;2023-09-07T06:54:44;8.67;;;2.97;;
10523;SDS011;5310;48.638;9.060;2023-09-07T06:57:10;7.00;;;2.63;;
10523;SDS011;5310;48.638;9.060;2023-09-07T06:59:36;6.77;;;2.50;;
10523;SDS011;5310;48.638;9.060;2023-09-07T07:02:03;5.87;;;2.30;;
10523;SDS011;5310;48.638;9.060;2023-09-07T07:04:30;7.13;;;2.63;;
10523;SDS011;5310;48.638;9.060;2023-09-07T07:06:55;5.97;;;2.33;;
10523;SDS011;5310;48.638;9.060;2023-09-07T07:09:21;7.73;;;2.70;;
10523;SDS011;5310;48.638;9.060;2023-09-07T07:11:48;7.83;;;2.77;;
10523;SDS011;5310;48.638;9.060;2023-09-07T07:14:14;6.63;;;2.43;;
10523;SDS011;5310;48.638;9.060;2023-09-07T07:16:40;6.53;;;2.50;;
10523;SDS011;5310;48.638;9.060;2023-09-07T07:19:06;7.00;;;2.57;;
10523;SDS011;5310;48.638;9.060;2023-09-07T07:21:32;7.43;;;2.60;;
10523;SDS011;5310;48.638;9.060;2023-09-07T07:23:57;7.03;;;2.60;;
10523;SDS011;5310;48.638;9.060;2023-09-07T07:26:23;7.13;;;2.50;;
10523;SDS011;5310;48.638;9.060;2023-09-07T07:28:49;7.60;;;2.60;;
10523;SDS011;5310;48.638;9.060;2023-09-07T07:31:15;6.60;;;2.37;;
10523;SDS011;5310;48.638;9.060;2023-09-07T07:33:41;7.50;;;2.60;;
10523;SDS011;5310;48.638;9.060;2023-09-07T07:36:07;6.23;;;2.27;;
10523;SDS011;5310;48.638;9.060;2023-09-07T07:38:33;7.33;;;2.60;;
10523;SDS011;5310;48.638;9.060;2023-09-07T07:41:00;7.30;;;2.50;;
10523;SDS011;5310;48.638;9.060;2023-09-07T07:43:26;6.17;;;2.30;;
10523;SDS011;5310;48.638;9.060;2023-09-07T07:45:53;5.87;;;2.30;;
10523;SDS011;5310;48.638;9.060;2023-09-07T07:48:19;7.63;;;2.60;;
10523;SDS011;5310;48.638;9.060;2023-09-07T07:50:45;5.87;;;2.20;;
10523;SDS011;5310;48.638;9.060;2023-09-07T07:53:11;7.87;;;2.60;;
10523;SDS011;5310;48.638;9.060;2023-09-07T07:55:37;6.97;;;2.47;;
10523;SDS011;5310;48.638;9.060;2023-09-07T07:58:07;6.30;;;2.33;;
10523;SDS011;5310;48.638;9.060;2023-09-07T08:00:34;6.73;;;2.47;;
10523;SDS011;5310;48.638;9.060;2023-09-07T08:03:00;7.57;;;2.60;;
10523;SDS011;5310;48.638;9.060;2023-09-07T08:05:28;7.93;;;2.70;;
10523;SDS011;5310;48.638;9.060;2023-09-07T08:07:54;7.20;;;2.50;;
10523;SDS011;5310;48.638;9.060;2023-09-07T08:10:20;6.43;;;2.33;;
10523;SDS011;5310;48.638;9.060;2023-09-07T08:12:46;7.10;;;2.40;;
10523;SDS011;5310;48.638;9.060;2023-09-07T08:15:12;7.50;;;2.50;;
10523;SDS011;5310;48.638;9.060;2023-09-07T08:17:39;11.53;;;3.47;;
10523;SDS011;5310;48.638;9.060;2023-09-07T08:20:05;7.10;;;2.37;;
10523;SDS011;5310;48.638;9.060;2023-09-07T08:22:33;7.72;;;2.55;;
10523;SDS011;5310;48.638;9.060;2023-09-07T08:25:01;7.03;;;2.38;;
10523;SDS011;5310;48.638;9.060;2023-09-07T08:27:27;7.90;;;2.60;;
10523;SDS011;5310;48.638;9.060;2023-09-07T08:29:53;7.03;;;2.38;;
10523;SDS011;5310;48.638;9.060;2023-09-07T08:32:19;7.32;;;2.35;;
10523;SDS011;5310;48.638;9.060;2023-09-07T08:34:46;6.55;;;2.25;;
10523;SDS011;5310;48.638;9.060;2023-09-07T08:37:12;7.43;;;2.45;;
10523;SDS011;5310;48.638;9.060;2023-09-07T08:39:38;6.70;;;2.20;;
10523;SDS011;5310;48.638;9.060;2023-09-07T08:42:07;6.65;;;2.30;;
10523;SDS011;5310;48.638;9.060;2023-09-07T08:44:33;8.23;;;2.63;;
10523;SDS011;5310;48.638;9.060;2023-09-07T08:47:01;7.35;;;2.42;;
10523;SDS011;5310;48.638;9.060;2023-09-07T08:49:28;7.15;;;2.40;;
10523;SDS011;5310;48.638;9.060;2023-09-07T08:51:59;7.65;;;2.53;;
10523;SDS011;5310;48.638;9.060;2023-09-07T08:54:26;7.00;;;2.33;;
10523;SDS011;5310;48.638;9.060;2023-09-07T08:56:52;7.47;;;2.45;;
10523;SDS011;5310;48.638;9.060;2023-09-07T08:59:18;8.05;;;2.58;;
10523;SDS011;5310;48.638;9.060;2023-09-07T09:01:44;6.82;;;2.35;;
10523;SDS011;5310;48.638;9.060;2023-09-07T09:04:10;7.85;;;2.47;;
10523;SDS011;5310;48.638;9.060;2023-09-07T09:06:36;6.60;;;2.25;;
10523;SDS011;5310;48.638;9.060;2023-09-07T09:09:02;7.63;;;2.55;;
10523;SDS011;5310;48.638;9.060;2023-09-07T09:11:31;8.35;;;2.70;;
10523;SDS011;5310;48.638;9.060;2023-09-07T09:13:57;6.78;;;2.30;;
10523;SDS011;5310;48.638;9.060;2023-09-07T09:16:23;7.95;;;2.50;;
10523;SDS011;5310;48.638;9.060;2023-09-07T09:18:49;6.55;;;2.30;;
10523;SDS011;5310;48.638;9.060;2023-09-07T09:21:17;8.20;;;2.60;;
10523;SDS011;5310;48.638;9.060;2023-09-07T09:23:43;9.40;;;2.70;;
10523;SDS011;5310;48.638;9.060;2023-09-07T09:26:09;9.18;;;2.72;;
10523;SDS011;5310;48.638;9.060;2023-09-07T09:28:35;7.93;;;2.65;;
10523;SDS011;5310;48.638;9.060;2023-09-07T09:31:02;5.50;;;1.95;;
10523;SDS011;5310;48.638;9.060;2023-09-07T09:33:31;7.00;;;2.40;;
10523;SDS011;5310;48.638;9.060;2023-09-07T09:35:58;7.18;;;2.50;;
10523;SDS011;5310;48.638;9.060;2023-09-07T09:38:24;7.68;;;2.58;;
10523;SDS011;5310;48.638;9.060;2023-09-07T09:40:50;7.35;;;2.47;;
10523;SDS011;5310;48.638;9.060;2023-09-07T09:43:16;6.90;;;2.40;;
10523;SDS011;5310;48.638;9.060;2023-09-07T09:45:45;6.45;;;2.28;;
10523;SDS011;5310;48.638;9.060;2023-09-07T09:48:11;7.35;;;2.38;;
10523;SDS011;5310;48.638;9.060;2023-09-07T09:50:37;7.95;;;2.65;;
10523;SDS011;5310;48.638;9.060;2023-09-07T09:53:07;6.57;;;2.35;;
10523;SDS011;5310;48.638;9.060;2023-09-07T09:55:34;7.03;;;2.40;;
10523;SDS011;5310;48.638;9.060;2023-09-07T09:58:00;6.78;;;2.33;;
10523;SDS011;5310;48.638;9.060;2023-09-07T10:00:26;7.22;;;2.45;;
10523;SDS011;5310;48.638;9.060;2023-09-07T10:05:39;5.65;;;2.10;;
10523;SDS011;5310;48.638;9.060;2023-09-07T10:08:09;3.35;;;1.42;;
10523;SDS011;5310;48.638;9.060;2023-09-07T10:10:37;4.45;;;1.83;;
10523;SDS011;5310;48.638;9.060;2023-09-07T10:13:04;5.13;;;2.00;;
10523;SDS011;5310;48.638;9.060;2023-09-07T10:15:30;5.13;;;1.90;;
10523;SDS011;5310;48.638;9.060;2023-09-07T10:18:13;4.88;;;1.88;;
10523;SDS011;5310;48.638;9.060;2023-09-07T10:20:50;4.65;;;1.80;;
10523;SDS011;5310;48.638;9.060;2023-09-07T10:23:17;4.47;;;1.70;;
10523;SDS011;5310;48.638;9.060;2023-09-07T10:25:47;5.40;;;1.92;;
10523;SDS011;5310;48.638;9.060;2023-09-07T10:28:23;5.53;;;1.92;;
10523;SDS011;5310;48.638;9.060;2023-09-07T10:31:01;6.38;;;1.98;;
10523;SDS011;5310;48.638;9.060;2023-09-07T10:33:29;5.30;;;1.80;;
10523;SDS011;5310;48.638;9.060;2023-09-07T10:35:59;4.72;;;1.70;;
10523;SDS011;5310;48.638;9.060;2023-09-07T10:38:26;4.90;;;1.88;;
10523;SDS011;5310;48.638;9.060;2023-09-07T10:40:55;4.72;;;1.75;;
10523;SDS011;5310;48.638;9.060;2023-09-07T10:43:23;3.92;;;1.58;;
10523;SDS011;5310;48.638;9.060;2023-09-07T10:45:53;4.30;;;1.67;;
10523;SDS011;5310;48.638;9.060;2023-09-07T10:48:20;5.97;;;2.13;;
10523;SDS011;5310;48.638;9.060;2023-09-07T10:50:46;4.10;;;1.73;;
10523;SDS011;5310;48.638;9.060;2023-09-07T10:53:13;4.35;;;1.73;;
10523;SDS011;5310;48.638;9.060;2023-09-07T10:55:39;5.35;;;2.00;;
10523;SDS011;5310;48.638;9.060;2023-09-07T10:58:05;4.25;;;1.70;;
10523;SDS011;5310;48.638;9.060;2023-09-07T11:00:31;5.03;;;1.90;;
10523;SDS011;5310;48.638;9.060;2023-09-07T11:02:58;5.78;;;2.10;;
10523;SDS011;5310;48.638;9.060;2023-09-07T11:05:24;4.22;;;1.65;;
10523;SDS011;5310;48.638;9.060;2023-09-07T11:07:51;5.57;;;2.10;;
10523;SDS011;5310;48.638;9.060;2023-09-07T11:10:17;4.82;;;1.90;;
10523;SDS011;5310;48.638;9.060;2023-09-07T11:12:43;6.07;;;2.30;;
10523;SDS011;5310;48.638;9.060;2023-09-07T11:15:10;4.85;;;1.90;;
10523;SDS011;5310;48.638;9.060;2023-09-07T11:17:36;5.93;;;2.20;;
10523;SDS011;5310;48.638;9.060;2023-09-07T11:20:05;6.32;;;2.28;;
10523;SDS011;5310;48.638;9.060;2023-09-07T11:22:32;5.47;;;2.05;;
10523;SDS011;5310;48.638;9.060;2023-09-07T11:25:01;4.13;;;1.65;;
10523;SDS011;5310;48.638;9.060;2023-09-07T11:27:31;5.30;;;1.90;;
10523;SDS011;5310;48.638;9.060;2023-09-07T11:29:57;4.10;;;1.65;;
10523;SDS011;5310;48.638;9.060;2023-09-07T11:32:32;5.05;;;1.95;;
10523;SDS011;5310;48.638;9.060;2023-09-07T11:34:59;4.45;;;1.80;;
10523;SDS011;5310;48.638;9.060;2023-09-07T11:37:25;5.50;;;2.03;;
10523;SDS011;5310;48.638;9.060;2023-09-07T11:39:51;5.40;;;2.00;;
10523;SDS011;5310;48.638;9.060;2023-09-07T11:42:17;4.53;;;1.80;;
10523;SDS011;5310;48.638;9.060;2023-09-07T11:44:43;4.80;;;1.77;;
10523;SDS011;5310;48.638;9.060;2023-09-07T11:47:09;6.30;;;2.30;;
10523;SDS011;5310;48.638;9.060;2023-09-07T11:49:35;7.68;;;2.58;;
10523;SDS011;5310;48.638;9.060;2023-09-07T11:52:00;7.35;;;2.45;;
10523;SDS011;5310;48.638;9.060;2023-09-07T11:54:26;6.80;;;2.22;;
10523;SDS011;5310;48.638;9.060;2023-09-07T11:56:52;8.02;;;2.58;;
10523;SDS011;5310;48.638;9.060;2023-09-07T11:59:18;6.70;;;2.33;;
10523;SDS011;5310;48.638;9.060;2023-09-07T12:01:44;6.88;;;2.45;;
10523;SDS011;5310;48.638;9.060;2023-09-07T12:04:10;5.95;;;2.17;;
10523;SDS011;5310;48.638;9.060;2023-09-07T12:06:36;6.78;;;2.33;;
10523;SDS011;5310;48.638;9.060;2023-09-07T12:09:06;6.30;;;2.08;;
10523;SDS011;5310;48.638;9.060;2023-09-07T12:11:34;7.80;;;2.65;;
10523;SDS011;5310;48.638;9.060;2023-09-07T12:14:00;7.65;;;2.55;;
10523;SDS011;5310;48.638;9.060;2023-09-07T12:16:26;7.30;;;2.40;;
10523;SDS011;5310;48.638;9.060;2023-09-07T12:18:52;9.43;;;2.83;;
10523;SDS011;5310;48.638;9.060;2023-09-07T12:21:18;7.60;;;2.53;;
10523;SDS011;5310;48.638;9.060;2023-09-07T12:23:44;7.38;;;2.53;;
10523;SDS011;5310;48.638;9.060;2023-09-07T12:26:11;8.50;;;2.83;;
10523;SDS011;5310;48.638;9.060;2023-09-07T12:28:37;8.93;;;2.75;;
10523;SDS011;5310;48.638;9.060;2023-09-07T12:31:03;6.32;;;2.17;;
10523;SDS011;5310;48.638;9.060;2023-09-07T12:33:30;8.05;;;2.60;;
10523;SDS011;5310;48.638;9.060;2023-09-07T12:35:57;8.27;;;2.65;;
10523;SDS011;5310;48.638;9.060;2023-09-07T12:38:23;9.20;;;2.80;;
10523;SDS011;5310;48.638;9.060;2023-09-07T12:40:53;7.47;;;2.40;;
10523;SDS011;5310;48.638;9.060;2023-09-07T12:43:19;8.93;;;2.70;;
10523;SDS011;5310;48.638;9.060;2023-09-07T12:45:45;7.07;;;2.35;;
10523;SDS011;5310;48.638;9.060;2023-09-07T12:48:11;9.15;;;2.78;;
10523;SDS011;5310;48.638;9.060;2023-09-07T12:50:37;9.63;;;2.88;;
10523;SDS011;5310;48.638;9.060;2023-09-07T12:53:05;8.65;;;2.60;;
10523;SDS011;5310;48.638;9.060;2023-09-07T12:55:31;7.38;;;2.40;;
10523;SDS011;5310;48.638;9.060;2023-09-07T12:57:57;7.22;;;2.28;;
10523;SDS011;5310;48.638;9.060;2023-09-07T13:00:25;8.98;;;2.72;;
10523;SDS011;5310;48.638;9.060;2023-09-07T13:02:51;9.95;;;2.85;;
10523;SDS011;5310;48.638;9.060;2023-09-07T13:05:17;8.85;;;2.70;;
10523;SDS011;5310;48.638;9.060;2023-09-07T13:07:43;7.97;;;2.42;;
10523;SDS011;5310;48.638;9.060;2023-09-07T13:10:10;7.57;;;2.45;;
10523;SDS011;5310;48.638;9.060;2023-09-07T13:12:36;7.63;;;2.40;;
10523;SDS011;5310;48.638;9.060;2023-09-07T13:15:02;9.35;;;2.80;;
10523;SDS011;5310;48.638;9.060;2023-09-07T13:17:28;10.40;;;3.00;;
10523;SDS011;5310;48.638;9.060;2023-09-07T13:19:54;9.38;;;2.78;;
10523;SDS011;5310;48.638;9.060;2023-09-07T13:22:20;8.48;;;2.67;;
10523;SDS011;5310;48.638;9.060;2023-09-07T13:24:46;8.95;;;2.75;;
10523;SDS011;5310;48.638;9.060;2023-09-07T13:27:12;10.65;;;2.97;;
10523;SDS011;5310;48.638;9.060;2023-09-07T13:29:38;8.52;;;2.55;;
10523;SDS011;5310;48.638;9.060;2023-09-07T13:32:04;7.47;;;2.38;;
10523;SDS011;5310;48.638;9.060;2023-09-07T13:34:30;8.90;;;2.65;;
10523;SDS011;5310;48.638;9.060;2023-09-07T13:36:56;7.45;;;2.42;;
10523;SDS011;5310;48.638;9.060;2023-09-07T13:39:22;7.82;;;2.40;;
10523;SDS011;5310;48.638;9.060;2023-09-07T13:41:48;7.65;;;2.40;;
10523;SDS011;5310;48.638;9.060;2023-09-07T13:44:14;8.52;;;2.58;;
10523;SDS011;5310;48.638;9.060;2023-09-07T13:46:40;9.43;;;2.75;;
10523;SDS011;5310;48.638;9.060;2023-09-07T13:49:07;7.53;;;2.38;;
10523;SDS011;5310;48.638;9.060;2023-09-07T13:51:33;10.57;;;2.90;;
10523;SDS011;5310;48.638;9.060;2023-09-07T13:54:06;8.10;;;2.45;;
10523;SDS011;5310;48.638;9.060;2023-09-07T13:56:32;8.77;;;2.58;;
10523;SDS011;5310;48.638;9.060;2023-09-07T13:58:58;8.00;;;2.45;;
10523;SDS011;5310;48.638;9.060;2023-09-07T14:01:24;9.20;;;2.65;;
10523;SDS011;5310;48.638;9.060;2023-09-07T14:03:50;9.45;;;2.75;;
10523;SDS011;5310;48.638;9.060;2023-09-07T14:06:16;7.03;;;2.28;;
10523;SDS011;5310;48.638;9.060;2023-09-07T14:08:43;8.27;;;2.50;;
10523;SDS011;5310;48.638;9.060;2023-09-07T14:11:11;7.05;;;2.22;;
10523;SDS011;5310;48.638;9.060;2023-09-07T14:13:37;8.43;;;2.55;;
10523;SDS011;5310;48.638;9.060;2023-09-07T14:16:03;9.20;;;2.70;;
10523;SDS011;5310;48.638;9.060;2023-09-07T14:18:29;8.52;;;2.60;;
10523;SDS011;5310;48.638;9.060;2023-09-07T14:20:55;8.57;;;2.58;;
10523;SDS011;5310;48.638;9.060;2023-09-07T14:23:23;8.43;;;2.60;;
10523;SDS011;5310;48.638;9.060;2023-09-07T14:25:51;9.38;;;2.70;;
10523;SDS011;5310;48.638;9.060;2023-09-07T14:28:17;8.70;;;2.63;;
10523;SDS011;5310;48.638;9.060;2023-09-07T14:30:43;9.02;;;2.75;;
10523;SDS011;5310;48.638;9.060;2023-09-07T14:33:09;7.97;;;2.42;;
10523;SDS011;5310;48.638;9.060;2023-09-07T14:35:34;9.63;;;2.72;;
10523;SDS011;5310;48.638;9.060;2023-09-07T14:38:00;9.10;;;2.72;;
10523;SDS011;5310;48.638;9.060;2023-09-07T14:40:27;8.02;;;2.50;;
10523;SDS011;5310;48.638;9.060;2023-09-07T14:42:53;10.60;;;3.00;;
10523;SDS011;5310;48.638;9.060;2023-09-07T14:45:22;8.38;;;2.50;;
10523;SDS011;5310;48.638;9.060;2023-09-07T14:47:48;8.98;;;2.60;;
10523;SDS011;5310;48.638;9.060;2023-09-07T14:50:14;8.95;;;2.65;;
10523;SDS011;5310;48.638;9.060;2023-09-07T14:52:40;8.50;;;2.58;;
10523;SDS011;5310;48.638;9.060;2023-09-07T14:55:07;8.35;;;2.58;;
10523;SDS011;5310;48.638;9.060;2023-09-07T14:57:33;10.25;;;2.88;;
10523;SDS011;5310;48.638;9.060;2023-09-07T14:59:59;8.75;;;2.60;;